createdAt,value
2022-10-03T00:14:10.161Z,85
2022-10-03T00:43:19.421Z,85
2022-10-03T01:12:20.702Z,84
2022-10-03T01:41:27.015Z,85
2022-10-03T02:10:42.632Z,85
2022-10-03T02:39:45.606Z,85
2022-10-03T03:08:55.783Z,85
2022-10-03T03:38:06.302Z,85
2022-10-03T04:07:22.511Z,85
2022-10-03T04:36:21.524Z,85
2022-10-03T05:05:42.633Z,85
2022-10-03T05:35:06.181Z,85
2022-10-03T06:04:24.316Z,85
2022-10-03T06:33:42.097Z,85
2022-10-03T07:03:06.810Z,90
2022-10-03T07:32:28.847Z,87
2022-10-03T08:01:45.859Z,87
2022-10-03T08:31:07.708Z,88
2022-10-03T09:00:27.010Z,87
2022-10-03T09:29:45.517Z,86
2022-10-03T09:59:07.879Z,87
2022-10-03T10:28:32.768Z,86
2022-10-03T10:57:51.518Z,85
2022-10-03T11:27:05.660Z,83
2022-10-03T11:56:23.845Z,75
2022-10-03T12:25:47.040Z,75
2022-10-03T12:55:12.914Z,73
2022-10-03T13:24:35.489Z,74
2022-10-03T13:53:58.453Z,73
2022-10-03T14:23:12.671Z,71
2022-10-03T14:52:31.659Z,70
2022-10-03T15:21:54.167Z,72
2022-10-03T15:51:09.834Z,72
2022-10-03T16:20:24.984Z,70
2022-10-03T16:49:46.434Z,71
2022-10-03T17:19:00.949Z,72
2022-10-03T17:48:20.979Z,73
2022-10-03T18:17:38.169Z,74
2022-10-03T18:46:56.973Z,74
2022-10-03T19:16:19.804Z,75
2022-10-03T19:45:33.579Z,75
2022-10-03T20:14:40.583Z,76
2022-10-03T20:43:50.381Z,76
2022-10-03T21:13:01.403Z,76
2022-10-03T21:42:11.191Z,77
2022-10-03T22:11:15.118Z,77
2022-10-03T22:40:30.281Z,77
2022-10-03T23:09:31.637Z,77
2022-10-03T23:38:38.701Z,77
